sensor_id;sensor_type;location;lat;lon;timestamp;P1;durP1;ratioP1;P2;durP2;ratioP2
9102;SDS011;4587;51.434;6.788;2023-07-16T00:00:44;6.67;;;1.93;;
9102;SDS011;4587;51.434;6.788;2023-07-16T00:03:09;3.57;;;1.90;;
9102;SDS011;4587;51.434;6.788;2023-07-16T00:05:38;7.53;;;2.17;;
9102;SDS011;4587;51.434;6.788;2023-07-16T00:08:04;5.03;;;1.90;;
9102;SDS011;4587;51.434;6.788;2023-07-16T00:10:29;5.40;;;2.07;;
9102;SDS011;4587;51.434;6.788;2023-07-16T00:12:57;5.37;;;2.17;;
9102;SDS011;4587;51.434;6.788;2023-07-16T00:15:24;3.33;;;2.00;;
9102;SDS011;4587;51.434;6.788;2023-07-16T00:17:50;3.37;;;2.00;;
9102;SDS011;4587;51.434;6.788;2023-07-16T00:20:15;2.47;;;1.70;;
9102;SDS011;4587;51.434;6.788;2023-07-16T00:22:41;3.27;;;1.80;;
9102;SDS011;4587;51.434;6.788;2023-07-16T00:25:07;2.97;;;1.83;;
9102;SDS011;4587;51.434;6.788;2023-07-16T00:27:33;4.27;;;1.80;;
9102;SDS011;4587;51.434;6.788;2023-07-16T00:29:58;3.87;;;1.90;;
9102;SDS011;4587;51.434;6.788;2023-07-16T00:32:24;6.00;;;2.10;;
9102;SDS011;4587;51.434;6.788;2023-07-16T00:34:50;3.73;;;1.97;;
9102;SDS011;4587;51.434;6.788;2023-07-16T00:37:15;5.40;;;2.40;;
9102;SDS011;4587;51.434;6.788;2023-07-16T00:39:41;6.50;;;1.90;;
9102;SDS011;4587;51.434;6.788;2023-07-16T00:42:06;5.30;;;2.10;;
9102;SDS011;4587;51.434;6.788;2023-07-16T00:44:32;3.67;;;2.13;;
9102;SDS011;4587;51.434;6.788;2023-07-16T00:46:57;3.93;;;2.10;;
9102;SDS011;4587;51.434;6.788;2023-07-16T00:49:23;3.67;;;2.07;;
9102;SDS011;4587;51.434;6.788;2023-07-16T00:51:49;3.67;;;2.10;;
9102;SDS011;4587;51.434;6.788;2023-07-16T00:54:17;3.87;;;2.27;;
9102;SDS011;4587;51.434;6.788;2023-07-16T00:56:43;3.70;;;1.93;;
9102;SDS011;4587;51.434;6.788;2023-07-16T00:59:08;4.10;;;2.20;;
9102;SDS011;4587;51.434;6.788;2023-07-16T01:01:34;4.67;;;2.27;;
9102;SDS011;4587;51.434;6.788;2023-07-16T01:04:00;3.67;;;2.30;;
9102;SDS011;4587;51.434;6.788;2023-07-16T01:06:29;3.57;;;2.43;;
9102;SDS011;4587;51.434;6.788;2023-07-16T01:09:03;5.77;;;2.60;;
9102;SDS011;4587;51.434;6.788;2023-07-16T01:11:33;8.03;;;2.70;;
9102;SDS011;4587;51.434;6.788;2023-07-16T01:14:00;6.17;;;2.63;;
9102;SDS011;4587;51.434;6.788;2023-07-16T01:16:27;4.33;;;2.90;;
9102;SDS011;4587;51.434;6.788;2023-07-16T01:18:53;5.00;;;2.53;;
9102;SDS011;4587;51.434;6.788;2023-07-16T01:21:20;4.50;;;2.90;;
9102;SDS011;4587;51.434;6.788;2023-07-16T01:23:56;4.23;;;2.70;;
9102;SDS011;4587;51.434;6.788;2023-07-16T01:31:53;5.97;;;2.90;;
9102;SDS011;4587;51.434;6.788;2023-07-16T01:34:20;5.20;;;3.10;;
9102;SDS011;4587;51.434;6.788;2023-07-16T01:36:47;4.67;;;3.00;;
9102;SDS011;4587;51.434;6.788;2023-07-16T01:39:14;5.90;;;3.30;;
9102;SDS011;4587;51.434;6.788;2023-07-16T01:41:40;6.73;;;3.10;;
9102;SDS011;4587;51.434;6.788;2023-07-16T01:44:05;7.83;;;3.33;;
9102;SDS011;4587;51.434;6.788;2023-07-16T01:46:31;5.07;;;3.23;;
9102;SDS011;4587;51.434;6.788;2023-07-16T01:48:57;7.43;;;2.77;;
9102;SDS011;4587;51.434;6.788;2023-07-16T01:51:22;7.57;;;2.93;;
9102;SDS011;4587;51.434;6.788;2023-07-16T01:53:48;4.87;;;2.80;;
9102;SDS011;4587;51.434;6.788;2023-07-16T01:56:14;4.73;;;2.40;;
9102;SDS011;4587;51.434;6.788;2023-07-16T01:58:39;4.93;;;2.67;;
9102;SDS011;4587;51.434;6.788;2023-07-16T02:01:05;7.80;;;3.20;;
9102;SDS011;4587;51.434;6.788;2023-07-16T02:03:30;7.17;;;2.97;;
9102;SDS011;4587;51.434;6.788;2023-07-16T02:05:56;8.27;;;3.00;;
9102;SDS011;4587;51.434;6.788;2023-07-16T02:08:21;5.33;;;2.60;;
9102;SDS011;4587;51.434;6.788;2023-07-16T02:10:47;6.30;;;3.03;;
9102;SDS011;4587;51.434;6.788;2023-07-16T02:13:13;7.37;;;3.10;;
9102;SDS011;4587;51.434;6.788;2023-07-16T02:15:39;4.53;;;2.40;;
9102;SDS011;4587;51.434;6.788;2023-07-16T02:18:05;4.13;;;2.30;;
9102;SDS011;4587;51.434;6.788;2023-07-16T02:20:31;6.03;;;2.30;;
9102;SDS011;4587;51.434;6.788;2023-07-16T02:22:57;6.53;;;2.73;;
9102;SDS011;4587;51.434;6.788;2023-07-16T02:25:22;6.50;;;2.80;;
9102;SDS011;4587;51.434;6.788;2023-07-16T02:27:48;7.03;;;3.07;;
9102;SDS011;4587;51.434;6.788;2023-07-16T02:30:14;5.70;;;2.70;;
9102;SDS011;4587;51.434;6.788;2023-07-16T02:32:40;4.67;;;2.30;;
9102;SDS011;4587;51.434;6.788;2023-07-16T02:35:06;8.40;;;2.63;;
9102;SDS011;4587;51.434;6.788;2023-07-16T02:37:32;5.83;;;2.60;;
9102;SDS011;4587;51.434;6.788;2023-07-16T02:39:58;7.37;;;2.40;;
9102;SDS011;4587;51.434;6.788;2023-07-16T02:42:23;3.87;;;2.17;;
9102;SDS011;4587;51.434;6.788;2023-07-16T02:44:49;5.50;;;2.40;;
9102;SDS011;4587;51.434;6.788;2023-07-16T02:47:15;9.57;;;2.67;;
9102;SDS011;4587;51.434;6.788;2023-07-16T02:49:40;4.03;;;2.20;;
9102;SDS011;4587;51.434;6.788;2023-07-16T02:52:06;6.70;;;2.40;;
9102;SDS011;4587;51.434;6.788;2023-07-16T02:54:32;7.53;;;2.60;;
9102;SDS011;4587;51.434;6.788;2023-07-16T02:57:00;5.27;;;2.60;;
9102;SDS011;4587;51.434;6.788;2023-07-16T02:59:25;4.63;;;2.33;;
9102;SDS011;4587;51.434;6.788;2023-07-16T03:01:51;7.43;;;2.70;;
9102;SDS011;4587;51.434;6.788;2023-07-16T03:04:17;5.20;;;2.27;;
9102;SDS011;4587;51.434;6.788;2023-07-16T03:06:42;5.97;;;2.30;;
9102;SDS011;4587;51.434;6.788;2023-07-16T03:09:08;7.13;;;2.57;;
9102;SDS011;4587;51.434;6.788;2023-07-16T03:11:34;6.60;;;2.17;;
9102;SDS011;4587;51.434;6.788;2023-07-16T03:13:59;7.47;;;2.13;;
9102;SDS011;4587;51.434;6.788;2023-07-16T03:16:25;5.70;;;2.30;;
9102;SDS011;4587;51.434;6.788;2023-07-16T03:18:50;6.20;;;1.83;;
9102;SDS011;4587;51.434;6.788;2023-07-16T03:21:16;3.47;;;2.00;;
9102;SDS011;4587;51.434;6.788;2023-07-16T03:23:41;6.03;;;2.30;;
9102;SDS011;4587;51.434;6.788;2023-07-16T03:26:07;7.17;;;2.10;;
9102;SDS011;4587;51.434;6.788;2023-07-16T03:28:33;9.00;;;2.90;;
9102;SDS011;4587;51.434;6.788;2023-07-16T03:30:58;3.30;;;1.90;;
9102;SDS011;4587;51.434;6.788;2023-07-16T03:33:24;5.60;;;1.93;;
9102;SDS011;4587;51.434;6.788;2023-07-16T03:35:49;6.93;;;2.10;;
9102;SDS011;4587;51.434;6.788;2023-07-16T03:38:15;6.50;;;2.27;;
9102;SDS011;4587;51.434;6.788;2023-07-16T03:40:46;7.57;;;2.70;;
9102;SDS011;4587;51.434;6.788;2023-07-16T03:43:13;8.17;;;3.00;;
9102;SDS011;4587;51.434;6.788;2023-07-16T03:45:39;7.47;;;2.83;;
9102;SDS011;4587;51.434;6.788;2023-07-16T03:48:05;7.87;;;3.10;;
9102;SDS011;4587;51.434;6.788;2023-07-16T03:50:30;5.00;;;2.50;;
9102;SDS011;4587;51.434;6.788;2023-07-16T03:52:56;8.10;;;3.50;;
9102;SDS011;4587;51.434;6.788;2023-07-16T03:55:22;8.13;;;3.20;;
9102;SDS011;4587;51.434;6.788;2023-07-16T03:57:47;8.80;;;2.90;;
9102;SDS011;4587;51.434;6.788;2023-07-16T04:00:13;9.47;;;2.57;;
9102;SDS011;4587;51.434;6.788;2023-07-16T04:02:38;9.70;;;2.57;;
9102;SDS011;4587;51.434;6.788;2023-07-16T04:05:04;6.87;;;2.30;;
9102;SDS011;4587;51.434;6.788;2023-07-16T04:07:30;7.30;;;2.20;;
9102;SDS011;4587;51.434;6.788;2023-07-16T04:09:56;6.10;;;2.27;;
9102;SDS011;4587;51.434;6.788;2023-07-16T04:12:21;7.27;;;2.50;;
9102;SDS011;4587;51.434;6.788;2023-07-16T04:14:47;6.87;;;2.07;;
9102;SDS011;4587;51.434;6.788;2023-07-16T04:17:13;7.57;;;2.10;;
9102;SDS011;4587;51.434;6.788;2023-07-16T04:19:38;8.27;;;2.40;;
9102;SDS011;4587;51.434;6.788;2023-07-16T04:22:04;6.30;;;2.50;;
9102;SDS011;4587;51.434;6.788;2023-07-16T04:24:30;8.43;;;2.60;;
9102;SDS011;4587;51.434;6.788;2023-07-16T04:26:55;8.00;;;3.20;;
9102;SDS011;4587;51.434;6.788;2023-07-16T04:29:22;10.03;;;2.90;;
9102;SDS011;4587;51.434;6.788;2023-07-16T04:31:48;10.10;;;3.30;;
9102;SDS011;4587;51.434;6.788;2023-07-16T04:34:13;10.57;;;3.30;;
9102;SDS011;4587;51.434;6.788;2023-07-16T04:36:39;7.63;;;2.90;;
9102;SDS011;4587;51.434;6.788;2023-07-16T04:39:04;6.23;;;2.33;;
9102;SDS011;4587;51.434;6.788;2023-07-16T04:41:30;5.77;;;2.33;;
9102;SDS011;4587;51.434;6.788;2023-07-16T04:43:56;6.60;;;2.60;;
9102;SDS011;4587;51.434;6.788;2023-07-16T04:46:21;4.80;;;2.20;;
9102;SDS011;4587;51.434;6.788;2023-07-16T04:48:47;7.37;;;2.80;;
9102;SDS011;4587;51.434;6.788;2023-07-16T04:51:13;4.30;;;2.20;;
9102;SDS011;4587;51.434;6.788;2023-07-16T04:53:38;5.53;;;2.83;;
9102;SDS011;4587;51.434;6.788;2023-07-16T04:56:04;12.03;;;3.33;;
9102;SDS011;4587;51.434;6.788;2023-07-16T04:58:37;7.07;;;3.47;;
9102;SDS011;4587;51.434;6.788;2023-07-16T05:01:02;7.50;;;3.50;;
9102;SDS011;4587;51.434;6.788;2023-07-16T05:03:28;7.23;;;3.40;;
9102;SDS011;4587;51.434;6.788;2023-07-16T05:05:53;8.67;;;3.80;;
9102;SDS011;4587;51.434;6.788;2023-07-16T05:08:19;8.33;;;3.80;;
9102;SDS011;4587;51.434;6.788;2023-07-16T05:10:45;7.23;;;3.27;;
9102;SDS011;4587;51.434;6.788;2023-07-16T05:13:10;10.33;;;2.67;;
9102;SDS011;4587;51.434;6.788;2023-07-16T05:15:37;8.97;;;2.53;;
9102;SDS011;4587;51.434;6.788;2023-07-16T05:18:02;7.37;;;2.53;;
9102;SDS011;4587;51.434;6.788;2023-07-16T05:20:28;7.67;;;2.20;;
9102;SDS011;4587;51.434;6.788;2023-07-16T05:22:54;5.90;;;2.40;;
9102;SDS011;4587;51.434;6.788;2023-07-16T05:25:19;5.93;;;2.30;;
9102;SDS011;4587;51.434;6.788;2023-07-16T05:27:45;5.27;;;3.33;;
9102;SDS011;4587;51.434;6.788;2023-07-16T05:30:10;8.07;;;2.60;;
9102;SDS011;4587;51.434;6.788;2023-07-16T05:32:36;7.47;;;3.20;;
9102;SDS011;4587;51.434;6.788;2023-07-16T05:35:02;8.10;;;3.00;;
9102;SDS011;4587;51.434;6.788;2023-07-16T05:37:27;8.00;;;2.80;;
9102;SDS011;4587;51.434;6.788;2023-07-16T05:39:53;7.43;;;2.77;;
9102;SDS011;4587;51.434;6.788;2023-07-16T05:42:18;8.20;;;2.67;;
9102;SDS011;4587;51.434;6.788;2023-07-16T05:44:46;7.27;;;3.07;;
9102;SDS011;4587;51.434;6.788;2023-07-16T05:47:13;8.00;;;3.00;;
9102;SDS011;4587;51.434;6.788;2023-07-16T05:49:38;14.27;;;3.90;;
9102;SDS011;4587;51.434;6.788;2023-07-16T05:52:04;12.57;;;4.50;;
9102;SDS011;4587;51.434;6.788;2023-07-16T05:54:30;11.47;;;4.90;;
9102;SDS011;4587;51.434;6.788;2023-07-16T05:56:56;10.17;;;4.70;;
9102;SDS011;4587;51.434;6.788;2023-07-16T05:59:22;9.50;;;4.50;;
9102;SDS011;4587;51.434;6.788;2023-07-16T06:01:47;14.37;;;4.80;;
9102;SDS011;4587;51.434;6.788;2023-07-16T06:04:13;12.90;;;5.10;;
9102;SDS011;4587;51.434;6.788;2023-07-16T06:06:39;8.37;;;4.63;;
9102;SDS011;4587;51.434;6.788;2023-07-16T06:09:04;9.63;;;4.17;;
9102;SDS011;4587;51.434;6.788;2023-07-16T06:11:30;8.73;;;4.10;;
9102;SDS011;4587;51.434;6.788;2023-07-16T06:13:55;9.27;;;4.30;;
9102;SDS011;4587;51.434;6.788;2023-07-16T06:16:21;11.73;;;4.03;;
9102;SDS011;4587;51.434;6.788;2023-07-16T06:18:47;7.70;;;4.03;;
9102;SDS011;4587;51.434;6.788;2023-07-16T06:21:12;12.43;;;4.33;;
9102;SDS011;4587;51.434;6.788;2023-07-16T06:23:38;8.47;;;4.33;;
9102;SDS011;4587;51.434;6.788;2023-07-16T06:26:05;10.30;;;4.37;;
9102;SDS011;4587;51.434;6.788;2023-07-16T06:28:31;11.60;;;4.63;;
9102;SDS011;4587;51.434;6.788;2023-07-16T06:30:57;8.20;;;4.33;;
9102;SDS011;4587;51.434;6.788;2023-07-16T06:33:22;8.63;;;4.13;;
9102;SDS011;4587;51.434;6.788;2023-07-16T06:35:48;11.13;;;4.53;;
9102;SDS011;4587;51.434;6.788;2023-07-16T06:38:14;8.43;;;4.03;;
9102;SDS011;4587;51.434;6.788;2023-07-16T06:40:40;9.90;;;4.60;;
9102;SDS011;4587;51.434;6.788;2023-07-16T06:43:11;11.57;;;5.00;;
9102;SDS011;4587;51.434;6.788;2023-07-16T06:45:37;10.63;;;4.37;;
9102;SDS011;4587;51.434;6.788;2023-07-16T06:48:02;8.47;;;4.33;;
9102;SDS011;4587;51.434;6.788;2023-07-16T06:50:28;10.27;;;4.67;;
9102;SDS011;4587;51.434;6.788;2023-07-16T06:52:53;10.87;;;4.90;;
9102;SDS011;4587;51.434;6.788;2023-07-16T06:55:19;10.27;;;4.83;;
9102;SDS011;4587;51.434;6.788;2023-07-16T06:57:45;9.73;;;4.80;;
9102;SDS011;4587;51.434;6.788;2023-07-16T07:00:10;8.35;;;4.15;;
9102;SDS011;4587;51.434;6.788;2023-07-16T07:02:36;8.48;;;4.13;;
9102;SDS011;4587;51.434;6.788;2023-07-16T07:05:02;7.57;;;3.78;;
9102;SDS011;4587;51.434;6.788;2023-07-16T07:07:27;6.82;;;3.30;;
9102;SDS011;4587;51.434;6.788;2023-07-16T07:09:53;7.25;;;3.60;;
9102;SDS011;4587;51.434;6.788;2023-07-16T07:12:19;7.45;;;3.80;;
9102;SDS011;4587;51.434;6.788;2023-07-16T07:14:46;8.07;;;4.28;;
9102;SDS011;4587;51.434;6.788;2023-07-16T07:17:12;6.28;;;3.58;;
9102;SDS011;4587;51.434;6.788;2023-07-16T07:19:37;6.45;;;3.45;;
9102;SDS011;4587;51.434;6.788;2023-07-16T07:22:03;7.35;;;3.58;;
9102;SDS011;4587;51.434;6.788;2023-07-16T07:24:28;11.20;;;3.67;;
9102;SDS011;4587;51.434;6.788;2023-07-16T07:26:54;5.57;;;3.60;;
9102;SDS011;4587;51.434;6.788;2023-07-16T07:29:20;9.73;;;3.70;;
9102;SDS011;4587;51.434;6.788;2023-07-16T07:31:45;6.47;;;3.42;;
9102;SDS011;4587;51.434;6.788;2023-07-16T07:34:11;11.43;;;3.67;;
9102;SDS011;4587;51.434;6.788;2023-07-16T07:36:36;7.20;;;3.50;;
9102;SDS011;4587;51.434;6.788;2023-07-16T07:39:02;7.60;;;3.50;;
9102;SDS011;4587;51.434;6.788;2023-07-16T07:41:27;5.68;;;3.47;;
9102;SDS011;4587;51.434;6.788;2023-07-16T07:43:53;6.97;;;3.50;;
9102;SDS011;4587;51.434;6.788;2023-07-16T07:46:18;7.32;;;3.55;;
9102;SDS011;4587;51.434;6.788;2023-07-16T07:48:44;9.60;;;3.95;;
9102;SDS011;4587;51.434;6.788;2023-07-16T07:51:09;5.22;;;3.45;;
9102;SDS011;4587;51.434;6.788;2023-07-16T07:53:35;5.43;;;3.38;;
9102;SDS011;4587;51.434;6.788;2023-07-16T07:56:00;6.43;;;3.65;;
9102;SDS011;4587;51.434;6.788;2023-07-16T07:58:26;5.28;;;3.45;;
9102;SDS011;4587;51.434;6.788;2023-07-16T08:00:52;7.20;;;3.22;;
9102;SDS011;4587;51.434;6.788;2023-07-16T08:03:17;7.22;;;3.67;;
9102;SDS011;4587;51.434;6.788;2023-07-16T08:05:43;7.07;;;3.60;;
9102;SDS011;4587;51.434;6.788;2023-07-16T08:08:08;6.70;;;3.70;;
9102;SDS011;4587;51.434;6.788;2023-07-16T08:10:34;8.40;;;4.07;;
9102;SDS011;4587;51.434;6.788;2023-07-16T08:12:59;5.95;;;3.70;;
9102;SDS011;4587;51.434;6.788;2023-07-16T08:15:25;8.13;;;4.00;;
9102;SDS011;4587;51.434;6.788;2023-07-16T08:17:50;7.60;;;3.83;;
9102;SDS011;4587;51.434;6.788;2023-07-16T08:20:16;4.65;;;3.50;;
9102;SDS011;4587;51.434;6.788;2023-07-16T08:22:41;6.90;;;4.20;;
9102;SDS011;4587;51.434;6.788;2023-07-16T08:25:07;6.15;;;4.07;;
9102;SDS011;4587;51.434;6.788;2023-07-16T08:27:33;8.00;;;4.57;;
9102;SDS011;4587;51.434;6.788;2023-07-16T08:29:59;8.88;;;4.50;;
9102;SDS011;4587;51.434;6.788;2023-07-16T08:32:25;8.15;;;4.70;;
9102;SDS011;4587;51.434;6.788;2023-07-16T08:34:50;8.93;;;4.78;;
9102;SDS011;4587;51.434;6.788;2023-07-16T08:37:16;8.07;;;4.90;;
9102;SDS011;4587;51.434;6.788;2023-07-16T08:39:41;7.23;;;4.60;;
9102;SDS011;4587;51.434;6.788;2023-07-16T08:42:08;9.13;;;4.57;;
9102;SDS011;4587;51.434;6.788;2023-07-16T08:44:35;6.30;;;4.33;;
9102;SDS011;4587;51.434;6.788;2023-07-16T08:47:02;8.33;;;4.00;;
9102;SDS011;4587;51.434;6.788;2023-07-16T08:49:29;8.73;;;4.50;;
9102;SDS011;4587;51.434;6.788;2023-07-16T08:51:55;8.18;;;4.30;;
9102;SDS011;4587;51.434;6.788;2023-07-16T08:54:21;9.57;;;4.33;;
9102;SDS011;4587;51.434;6.788;2023-07-16T08:56:47;7.83;;;4.30;;
9102;SDS011;4587;51.434;6.788;2023-07-16T08:59:14;9.77;;;4.40;;
9102;SDS011;4587;51.434;6.788;2023-07-16T09:01:40;7.67;;;4.20;;
9102;SDS011;4587;51.434;6.788;2023-07-16T09:04:06;8.73;;;4.37;;
9102;SDS011;4587;51.434;6.788;2023-07-16T09:06:31;7.93;;;5.20;;
9102;SDS011;4587;51.434;6.788;2023-07-16T09:08:57;7.27;;;4.73;;
9102;SDS011;4587;51.434;6.788;2023-07-16T09:11:23;7.90;;;4.43;;
9102;SDS011;4587;51.434;6.788;2023-07-16T09:13:49;7.43;;;4.20;;
9102;SDS011;4587;51.434;6.788;2023-07-16T09:16:15;9.20;;;4.40;;
9102;SDS011;4587;51.434;6.788;2023-07-16T09:18:43;8.03;;;4.17;;
9102;SDS011;4587;51.434;6.788;2023-07-16T09:21:08;7.07;;;3.90;;
9102;SDS011;4587;51.434;6.788;2023-07-16T09:23:34;11.57;;;4.53;;
9102;SDS011;4587;51.434;6.788;2023-07-16T09:26:00;8.73;;;4.43;;
9102;SDS011;4587;51.434;6.788;2023-07-16T09:28:28;6.13;;;3.80;;
9102;SDS011;4587;51.434;6.788;2023-07-16T09:30:56;6.23;;;3.60;;
9102;SDS011;4587;51.434;6.788;2023-07-16T09:33:28;8.70;;;4.17;;
9102;SDS011;4587;51.434;6.788;2023-07-16T09:35:53;8.00;;;4.23;;
9102;SDS011;4587;51.434;6.788;2023-07-16T09:38:19;7.60;;;3.97;;
9102;SDS011;4587;51.434;6.788;2023-07-16T09:40:45;7.47;;;4.10;;
9102;SDS011;4587;51.434;6.788;2023-07-16T09:43:11;5.90;;;3.90;;
9102;SDS011;4587;51.434;6.788;2023-07-16T09:45:37;8.53;;;4.20;;
9102;SDS011;4587;51.434;6.788;2023-07-16T09:48:03;7.67;;;3.27;;
9102;SDS011;4587;51.434;6.788;2023-07-16T09:50:30;7.47;;;4.20;;
9102;SDS011;4587;51.434;6.788;2023-07-16T09:52:58;7.07;;;4.17;;
9102;SDS011;4587;51.434;6.788;2023-07-16T09:55:24;6.10;;;3.83;;
9102;SDS011;4587;51.434;6.788;2023-07-16T09:57:53;7.67;;;4.17;;
9102;SDS011;4587;51.434;6.788;2023-07-16T10:00:22;6.33;;;4.10;;
9102;SDS011;4587;51.434;6.788;2023-07-16T10:02:49;9.37;;;4.13;;
9102;SDS011;4587;51.434;6.788;2023-07-16T10:05:27;8.30;;;4.53;;
9102;SDS011;4587;51.434;6.788;2023-07-16T10:07:54;7.40;;;3.90;;
9102;SDS011;4587;51.434;6.788;2023-07-16T10:10:25;6.27;;;3.60;;
9102;SDS011;4587;51.434;6.788;2023-07-16T10:13:14;5.70;;;3.70;;
9102;SDS011;4587;51.434;6.788;2023-07-16T10:15:51;5.13;;;4.03;;
9102;SDS011;4587;51.434;6.788;2023-07-16T10:20:59;7.00;;;4.10;;
9102;SDS011;4587;51.434;6.788;2023-07-16T10:23:25;7.07;;;3.60;;
9102;SDS011;4587;51.434;6.788;2023-07-16T10:26:10;7.00;;;3.73;;
9102;SDS011;4587;51.434;6.788;2023-07-16T10:28:37;8.23;;;4.10;;
9102;SDS011;4587;51.434;6.788;2023-07-16T10:31:03;7.17;;;3.90;;
9102;SDS011;4587;51.434;6.788;2023-07-16T10:33:29;7.30;;;4.30;;
9102;SDS011;4587;51.434;6.788;2023-07-16T10:35:56;7.27;;;3.77;;
9102;SDS011;4587;51.434;6.788;2023-07-16T10:38:25;8.27;;;4.20;;
9102;SDS011;4587;51.434;6.788;2023-07-16T10:40:51;7.07;;;3.63;;
9102;SDS011;4587;51.434;6.788;2023-07-16T10:43:17;10.65;;;4.18;;
9102;SDS011;4587;51.434;6.788;2023-07-16T10:45:43;8.97;;;3.50;;
9102;SDS011;4587;51.434;6.788;2023-07-16T10:48:11;6.63;;;4.13;;
9102;SDS011;4587;51.434;6.788;2023-07-16T10:50:37;8.80;;;4.10;;
9102;SDS011;4587;51.434;6.788;2023-07-16T10:53:03;7.47;;;4.30;;
9102;SDS011;4587;51.434;6.788;2023-07-16T10:55:29;6.47;;;3.92;;
9102;SDS011;4587;51.434;6.788;2023-07-16T10:57:57;7.27;;;3.77;;
9102;SDS011;4587;51.434;6.788;2023-07-16T11:00:23;6.03;;;3.90;;
9102;SDS011;4587;51.434;6.788;2023-07-16T11:02:51;5.83;;;3.90;;
9102;SDS011;4587;51.434;6.788;2023-07-16T11:05:17;6.47;;;3.77;;
9102;SDS011;4587;51.434;6.788;2023-07-16T11:07:44;9.17;;;3.80;;
9102;SDS011;4587;51.434;6.788;2023-07-16T11:10:11;5.23;;;3.10;;
9102;SDS011;4587;51.434;6.788;2023-07-16T11:12:37;5.43;;;3.33;;
9102;SDS011;4587;51.434;6.788;2023-07-16T11:15:03;5.07;;;3.13;;
9102;SDS011;4587;51.434;6.788;2023-07-16T11:17:28;7.80;;;3.67;;
9102;SDS011;4587;51.434;6.788;2023-07-16T11:19:54;8.13;;;3.30;;
9102;SDS011;4587;51.434;6.788;2023-07-16T11:22:24;4.70;;;3.37;;
9102;SDS011;4587;51.434;6.788;2023-07-16T11:24:51;8.23;;;3.93;;
9102;SDS011;4587;51.434;6.788;2023-07-16T11:27:19;5.53;;;3.63;;
9102;SDS011;4587;51.434;6.788;2023-07-16T11:29:47;5.43;;;3.47;;
9102;SDS011;4587;51.434;6.788;2023-07-16T11:32:33;6.30;;;3.60;;
9102;SDS011;4587;51.434;6.788;2023-07-16T11:35:01;5.67;;;3.30;;
9102;SDS011;4587;51.434;6.788;2023-07-16T11:37:28;7.50;;;3.60;;
9102;SDS011;4587;51.434;6.788;2023-07-16T11:39:56;10.13;;;4.20;;
9102;SDS011;4587;51.434;6.788;2023-07-16T11:42:33;8.27;;;3.77;;
9102;SDS011;4587;51.434;6.788;2023-07-16T11:45:14;5.20;;;3.23;;
9102;SDS011;4587;51.434;6.788;2023-07-16T11:47:52;6.33;;;3.70;;
9102;SDS011;4587;51.434;6.788;2023-07-16T11:50:18;6.97;;;3.10;;
9102;SDS011;4587;51.434;6.788;2023-07-16T11:52:54;5.00;;;3.27;;
9102;SDS011;4587;51.434;6.788;2023-07-16T11:55:21;5.33;;;3.57;;
9102;SDS011;4587;51.434;6.788;2023-07-16T11:57:47;7.80;;;3.40;;
9102;SDS011;4587;51.434;6.788;2023-07-16T12:00:13;7.80;;;3.77;;
9102;SDS011;4587;51.434;6.788;2023-07-16T12:02:39;8.80;;;3.50;;
9102;SDS011;4587;51.434;6.788;2023-07-16T12:05:04;5.23;;;3.20;;
9102;SDS011;4587;51.434;6.788;2023-07-16T12:07:32;7.13;;;3.40;;
9102;SDS011;4587;51.434;6.788;2023-07-16T12:10:02;8.67;;;3.90;;
9102;SDS011;4587;51.434;6.788;2023-07-16T12:12:29;6.67;;;3.60;;
9102;SDS011;4587;51.434;6.788;2023-07-16T12:14:54;8.10;;;3.40;;
9102;SDS011;4587;51.434;6.788;2023-07-16T12:17:20;6.43;;;3.63;;
9102;SDS011;4587;51.434;6.788;2023-07-16T12:19:45;8.23;;;4.17;;
9102;SDS011;4587;51.434;6.788;2023-07-16T12:22:11;4.80;;;2.93;;
9102;SDS011;4587;51.434;6.788;2023-07-16T12:24:37;5.57;;;3.20;;
9102;SDS011;4587;51.434;6.788;2023-07-16T12:27:03;6.20;;;3.57;;
9102;SDS011;4587;51.434;6.788;2023-07-16T12:29:28;5.37;;;3.07;;
9102;SDS011;4587;51.434;6.788;2023-07-16T12:31:54;5.97;;;3.63;;
9102;SDS011;4587;51.434;6.788;2023-07-16T12:34:19;5.22;;;3.10;;
9102;SDS011;4587;51.434;6.788;2023-07-16T12:36:45;5.40;;;3.37;;
9102;SDS011;4587;51.434;6.788;2023-07-16T12:39:10;5.33;;;3.10;;
9102;SDS011;4587;51.434;6.788;2023-07-16T12:41:36;5.47;;;3.10;;
9102;SDS011;4587;51.434;6.788;2023-07-16T12:44:02;7.43;;;3.37;;
9102;SDS011;4587;51.434;6.788;2023-07-16T12:46:27;6.23;;;3.70;;
9102;SDS011;4587;51.434;6.788;2023-07-16T12:48:53;8.40;;;3.63;;
9102;SDS011;4587;51.434;6.788;2023-07-16T12:51:18;4.95;;;3.22;;
9102;SDS011;4587;51.434;6.788;2023-07-16T12:53:44;4.17;;;3.10;;
9102;SDS011;4587;51.434;6.788;2023-07-16T12:56:09;5.13;;;3.50;;
9102;SDS011;4587;51.434;6.788;2023-07-16T12:58:35;5.57;;;3.45;;
9102;SDS011;4587;51.434;6.788;2023-07-16T13:01:01;5.27;;;3.50;;
9102;SDS011;4587;51.434;6.788;2023-07-16T13:03:27;4.73;;;3.57;;
9102;SDS011;4587;51.434;6.788;2023-07-16T13:05:52;6.67;;;3.10;;
9102;SDS011;4587;51.434;6.788;2023-07-16T13:08:19;6.07;;;3.20;;
9102;SDS011;4587;51.434;6.788;2023-07-16T13:10:44;7.68;;;3.50;;
9102;SDS011;4587;51.434;6.788;2023-07-16T13:13:10;4.70;;;3.10;;
9102;SDS011;4587;51.434;6.788;2023-07-16T13:15:35;4.70;;;3.08;;
9102;SDS011;4587;51.434;6.788;2023-07-16T13:18:01;3.80;;;2.70;;
9102;SDS011;4587;51.434;6.788;2023-07-16T13:20:27;5.15;;;3.03;;
9102;SDS011;4587;51.434;6.788;2023-07-16T13:22:54;5.32;;;3.15;;
9102;SDS011;4587;51.434;6.788;2023-07-16T13:25:20;6.50;;;3.00;;
9102;SDS011;4587;51.434;6.788;2023-07-16T13:27:46;4.97;;;2.97;;
9102;SDS011;4587;51.434;6.788;2023-07-16T13:30:12;5.67;;;3.23;;
9102;SDS011;4587;51.434;6.788;2023-07-16T13:32:38;5.75;;;2.88;;
9102;SDS011;4587;51.434;6.788;2023-07-16T13:35:04;4.63;;;2.93;;
9102;SDS011;4587;51.434;6.788;2023-07-16T13:37:30;6.17;;;2.83;;
9102;SDS011;4587;51.434;6.788;2023-07-16T13:39:55;6.20;;;3.08;;
9102;SDS011;4587;51.434;6.788;2023-07-16T13:42:21;4.63;;;3.10;;
9102;SDS011;4587;51.434;6.788;2023-07-16T13:44:46;6.20;;;3.13;;
9102;SDS011;4587;51.434;6.788;2023-07-16T13:47:12;3.87;;;2.83;;
9102;SDS011;4587;51.434;6.788;2023-07-16T13:49:37;3.40;;;2.70;;
9102;SDS011;4587;51.434;6.788;2023-07-16T13:52:03;4.57;;;2.63;;
9102;SDS011;4587;51.434;6.788;2023-07-16T13:54:29;6.57;;;2.72;;
9102;SDS011;4587;51.434;6.788;2023-07-16T13:56:54;4.18;;;2.65;;
9102;SDS011;4587;51.434;6.788;2023-07-16T13:59:20;3.67;;;2.50;;
9102;SDS011;4587;51.434;6.788;2023-07-16T14:01:45;3.33;;;2.25;;
9102;SDS011;4587;51.434;6.788;2023-07-16T14:04:12;4.60;;;2.67;;
9102;SDS011;4587;51.434;6.788;2023-07-16T14:06:37;4.25;;;2.45;;
9102;SDS011;4587;51.434;6.788;2023-07-16T14:09:03;4.68;;;2.20;;
9102;SDS011;4587;51.434;6.788;2023-07-16T14:11:30;3.00;;;2.45;;
9102;SDS011;4587;51.434;6.788;2023-07-16T14:13:55;5.95;;;2.38;;
9102;SDS011;4587;51.434;6.788;2023-07-16T14:16:21;3.20;;;2.22;;
9102;SDS011;4587;51.434;6.788;2023-07-16T14:18:51;4.22;;;2.50;;
9102;SDS011;4587;51.434;6.788;2023-07-16T14:21:17;4.50;;;2.40;;
9102;SDS011;4587;51.434;6.788;2023-07-16T14:23:43;4.00;;;2.28;;
9102;SDS011;4587;51.434;6.788;2023-07-16T14:26:09;4.28;;;2.40;;
9102;SDS011;4587;51.434;6.788;2023-07-16T14:28:34;3.75;;;2.38;;
9102;SDS011;4587;51.434;6.788;2023-07-16T14:31:00;3.28;;;1.92;;
9102;SDS011;4587;51.434;6.788;2023-07-16T14:33:26;3.97;;;2.35;;
9102;SDS011;4587;51.434;6.788;2023-07-16T14:35:52;3.50;;;2.40;;
9102;SDS011;4587;51.434;6.788;2023-07-16T14:38:18;6.45;;;2.20;;
9102;SDS011;4587;51.434;6.788;2023-07-16T14:40:43;3.88;;;2.10;;
9102;SDS011;4587;51.434;6.788;2023-07-16T14:43:09;2.63;;;2.08;;
9102;SDS011;4587;51.434;6.788;2023-07-16T14:45:34;5.00;;;2.40;;
9102;SDS011;4587;51.434;6.788;2023-07-16T14:48:00;4.05;;;2.40;;
9102;SDS011;4587;51.434;6.788;2023-07-16T14:50:26;5.38;;;2.15;;
9102;SDS011;4587;51.434;6.788;2023-07-16T14:52:52;4.78;;;2.45;;
9102;SDS011;4587;51.434;6.788;2023-07-16T14:55:18;3.60;;;2.20;;
9102;SDS011;4587;51.434;6.788;2023-07-16T14:57:44;3.80;;;2.35;;
9102;SDS011;4587;51.434;6.788;2023-07-16T15:00:10;4.80;;;2.60;;
9102;SDS011;4587;51.434;6.788;2023-07-16T15:02:36;6.45;;;2.92;;
9102;SDS011;4587;51.434;6.788;2023-07-16T15:05:02;4.85;;;2.80;;
9102;SDS011;4587;51.434;6.788;2023-07-16T15:07:29;6.70;;;2.50;;
9102;SDS011;4587;51.434;6.788;2023-07-16T15:09:55;4.93;;;2.50;;
9102;SDS011;4587;51.434;6.788;2023-07-16T15:12:20;4.10;;;2.65;;
9102;SDS011;4587;51.434;6.788;2023-07-16T15:14:46;7.72;;;2.67;;
9102;SDS011;4587;51.434;6.788;2023-07-16T15:17:12;6.50;;;2.22;;